Roulo, Michigan
Current Conditions -  °F | °C
As of 9:53 PM on Sunday 23 Nov 2014 (Local Time) from KYIP Reporting Station
Moderate Rain Moderate Rain  
Wind Chill: 54°   Ceiling: 800
Heat Index: 54°   Visibility: 4mi
Dew Point: 48°   Wind: 16mph
Humidity: 80%   Direction: 130°SE
Pressure: 29.38"   Gusts: NA
Location:  42.1781°N, 83.4854°W
Report Text: KYIP 240253Z AUTO 13014KT 4SM RA BKN008 OVC014 12/09 A2938 RMK AO2 CIG 006V010 PRESFR SLP948 P0013 60030 T01220089 58064 TSNO
Loading
Personal Weather Stations






























Interactive Weather Map New forecast layout! Learn more

10-Day Weather Forecast

Advertisements
Track Severe Weather on mobile